»·PEaware :: N529B KLHM-KAPC

N529B :: KLHM-KAPC

FLIGHT INFORMATION

Flight Status: Arrived
Operator: Privately registered:
United States
More flights under this callsign
Pilot: Kim B. (19519)
Aircraft: Unknown
(B29)
More flights by this aircraft type
Origin: KLHM Lincoln Regl/Harder
United States
Destination: KAPC Napa Co
United States
More flights between these airports :: More routes between these airports
Route: + OAKEY
File this flight plan on PilotEdge
Remarks:
Altitude:
(Current/Filed)
4,000ft
Speed:
(Current/Filed)
180kts
Departed: 09-Oct-18 06:21 PM
Arrived: 09-Oct-18 07:00 PM
Distance/Time
Traveled:
60nm/0:38
Distance/Time
To Go:
Arrived

Flight Plot

Page will automatically refresh every two minutes.

Flight plan parsing failed; only flown route is shown


Map Options




Map Legend


Flown Route
Filed Route
Departure Airport
Arrival Airport
Navaid (VOR, NDB)
Fix

Horizontal Profiles

Position Reports

Time Latitude Longitude Heading Altitude Ground
Speed
09-Oct-18 18:06 38.902884 -121.344013 345 128ft 0kts
09-Oct-18 18:07 38.902884 -121.344013 345 128ft 0kts
09-Oct-18 18:08 38.902884 -121.344013 345 128ft 0kts
09-Oct-18 18:09 38.902884 -121.344013 345 128ft 0kts
09-Oct-18 18:10 38.902884 -121.344013 345 128ft 0kts
09-Oct-18 18:11 38.902884 -121.344013 345 128ft 0kts
09-Oct-18 18:12 38.902884 -121.344013 345 128ft 0kts
09-Oct-18 18:13 38.902884 -121.344013 345 128ft 0kts
09-Oct-18 18:14 38.902884 -121.344013 345 128ft 0kts
09-Oct-18 18:15 38.902884 -121.344013 345 128ft 0kts
09-Oct-18 18:16 38.902884 -121.344013 345 128ft 0kts
09-Oct-18 18:17 38.902884 -121.344013 345 128ft 0kts
09-Oct-18 18:18 38.902884 -121.344013 345 128ft 0kts
09-Oct-18 18:19 38.902884 -121.344013 345 128ft 0kts
09-Oct-18 18:20 38.902564 -121.345380 175 128ft 10kts
09-Oct-18 18:21 38.901460 -121.347707 256 126ft 0kts
09-Oct-18 18:22 38.901350 -121.348619 301 126ft 6kts
09-Oct-18 18:23 38.912334 -121.352347 345 127ft 119kts
09-Oct-18 18:24 38.938050 -121.334725 107 958ft 150kts
09-Oct-18 18:25 38.899506 -121.323463 183 1947ft 166kts
09-Oct-18 18:26 38.852229 -121.315337 156 2898ft 182kts
09-Oct-18 18:27 38.805035 -121.287152 154 3819ft 194kts
09-Oct-18 18:28 38.753057 -121.255876 165 3996ft 216kts
09-Oct-18 18:29 38.703184 -121.292542 218 4003ft 218kts
09-Oct-18 18:30 38.660533 -121.335316 218 4001ft 218kts
09-Oct-18 18:31 38.614820 -121.381061 218 4001ft 217kts
09-Oct-18 18:32 38.575341 -121.420511 218 4001ft 216kts
09-Oct-18 18:33 38.521326 -121.474381 218 3998ft 205kts
09-Oct-18 18:34 38.477263 -121.518247 218 3999ft 197kts
09-Oct-18 18:35 38.437864 -121.563826 260 3995ft 190kts
09-Oct-18 18:36 38.454060 -121.625798 292 4000ft 184kts
09-Oct-18 18:37 38.455111 -121.675789 224 4002ft 179kts
09-Oct-18 18:38 38.404858 -121.661384 154 4001ft 174kts
09-Oct-18 18:39 38.367334 -121.643627 170 4001ft 173kts
09-Oct-18 18:40 38.319522 -121.641277 173 4002ft 171kts
09-Oct-18 18:41 38.272245 -121.634722 173 4004ft 171kts
09-Oct-18 18:42 38.223342 -121.628915 187 4000ft 181kts
09-Oct-18 18:43 38.172870 -121.642197 191 4004ft 189kts
09-Oct-18 18:44 38.120849 -121.655467 190 4002ft 192kts
09-Oct-18 18:45 38.068289 -121.669139 200 3996ft 194kts
09-Oct-18 18:46 38.049296 -121.729141 258 4001ft 190kts
09-Oct-18 18:47 38.041587 -121.780276 258 4001ft 188kts
09-Oct-18 18:48 38.031690 -121.845950 258 4004ft 195kts
09-Oct-18 18:49 38.021329 -121.914767 259 4003ft 201kts
09-Oct-18 18:50 38.011200 -121.982105 259 4003ft 205kts
09-Oct-18 18:51 38.000620 -122.052500 259 4001ft 207kts
09-Oct-18 18:52 37.989984 -122.123363 259 3962ft 201kts
09-Oct-18 18:53 37.979923 -122.190798 259 3123ft 195kts
09-Oct-18 18:54 37.970612 -122.253062 259 3027ft 165kts
09-Oct-18 18:55 37.972236 -122.306609 302 3042ft 155kts
09-Oct-18 18:56 38.004942 -122.350351 351 3046ft 151kts
09-Oct-18 18:57 38.039753 -122.356310 352 3043ft 154kts
09-Oct-18 18:58 38.083129 -122.345039 20 2665ft 177kts
09-Oct-18 18:59 38.131286 -122.321956 20 1666ft 190kts
09-Oct-18 19:00 38.184101 -122.297046 17 1000ft 148kts
09-Oct-18 19:01 38.214207 -122.282111 18 22ft 109kts
09-Oct-18 19:02 38.225621 -122.276522 41 24ft 0kts
09-Oct-18 19:03 38.222688 -122.276538 154 31ft 11kts
09-Oct-18 19:04 38.220239 -122.276439 156 32ft 24kts
09-Oct-18 19:05 38.215916 -122.273929 241 35ft 0kts
09-Oct-18 19:06 38.215917 -122.273928 241 35ft 0kts
09-Oct-18 19:07 38.215917 -122.273928 241 35ft 0kts
09-Oct-18 19:08 38.215909 -122.273947 241 35ft 0kts
09-Oct-18 19:09 38.215909 -122.273947 241 35ft 0kts
09-Oct-18 19:10 38.215909 -122.273947 241 35ft 0kts
09-Oct-18 19:11 38.215909 -122.273947 241 35ft 0kts
09-Oct-18 19:12 38.215909 -122.273947 241 35ft 0kts
09-Oct-18 19:13 38.215909 -122.273947 241 35ft 0kts
09-Oct-18 19:14 38.215909 -122.273947 241 35ft 0kts
09-Oct-18 19:15 38.215909 -122.273947 241 35ft 0kts
09-Oct-18 19:16 38.215909 -122.273947 241 35ft 0kts

Navigation Log

Ident Type
Flight plan parsing failed, navigation log unavailable